EKSN/CNL METAR and TAF weather

Enter ICAO airport designator
Station Type Date Time Source
EKSN METAR 2019/12/12 11:50 UTC NOAA

EKSN 121150Z 17009KT 9999 FEW011 SCT020 04/03 Q0994


Station Type Date Time Source
EKSN Decoded METAR 2019/12/12 11:50 UTC NOAA

Sindal Flyveplads, Denmark (EKSN) 57-30N 010-13E 28M
Dec 12, 2019 - 06:50 AM EST / 2019.12.12 1150 UTC
Wind: from the S (170 degrees) at 10 MPH (9 KT):0
Visibility: greater than 7 mile(s):0
Sky conditions: partly cloudy
Temperature: 39 F (4 C)
Dew Point: 37 F (3 C)
Relative Humidity: 93%
Pressure (altimeter): 29.35 in. Hg (0994 hPa)
ob: EKSN 121150Z 17009KT 9999 FEW011 SCT020 04/03 Q0994
cycle: 12

Station Type Date Time Source
EKSN TAF UTC NOAA

Error!

Example: see airport list